Detailed Flight Report of Nuri Burak ERKAL ;
Number CXD079 
Departure Aerodrome UAAA 
Arrival Aerodrome UBBB

Map generated by the Great Circle Mapper - copyright © Karl L. Swartz.

Pilot In Command CXD079 : Nuri Burak Erkal
Aircraft B773 / TC-NZL
Date Of Flight 2020-07-01
Departure Time 07:28 UTC
Arrival Time 10:45 UTC
Block Time 03:17
Distance 1,309 Nm.
Used Fuel 32,767 Lbs.
   
Detailed Flight Log [2020/07/01 07:03:00]
Flight IATA:C001
Pilot Number:079
Company ICAO:CXD
Aircraft Type:B773
Aircraft Registration:TC-NZL
Departing Airport: UAAA
Destination Airport: UBBB
Alternate Airport:UBBQ
Online: VATSIM
Route:TIPSA G270 AGLEK A113 TOMGO A356 KZO M610 DIVNO N161 MASAV N55 BALUN N70 ROPKA
Flight Level:FL380
No pause
07:03 Zero fuel Weight: 478633 Lbs, Fuel Weight: 74565 Lbs
07:03 VATSIM:UAAA 301730Z 15003MPS 9999 SCT100 19/11 Q1006 R23L/CLRD65 NOSIG
07:03 VATSIM:UBBB 301800Z 14004KT CAVOK 23/21 Q1007 R88/CLRD// NOSIG
07:13 Parking Brakes off
07:20 VR= 158 Knots
07:20 V2= 165 Knots
07:20 Take-off
07:20 Take off Weight: 552077 Lbs
07:20 Wind: 355º @ 002 Knots Heading: 055º
07:20 POS N43º 21´ 17´´ E077º 02´ 47´´
07:20 N11 85 N12 85
07:20 Flaps:5º at 166 Knots
07:20 Gear Up: 164 Knots
07:21 Flaps:1º at 191 Knots
07:21 Flaps:Up at 209 Knots
07:35 Wind:249º@056
Knots Heading: 263º Ground Speed: 428 Knots Altitude 34635 ft
07:37 TOC
07:37 Fuel Weight: 64329 Lb
07:50 Wind:248º@057 Knots Heading: 278º Ground Speed: 432 Knots Altitude 37762 ft
08:05 Wind:250º@038 Knots Heading: 277º Ground Speed: 448 Knots Altitude 37749 ft
08:20 Wind:266º@038 Knots Heading: 277º Ground Speed: 443 Knots Altitude 37716 ft
08:35 Wind:270º@041 Knots Heading: 273º Ground Speed: 439 Knots Altitude 37696 ft
08:50 Wind:270º@047 Knots Heading: 271º Ground Speed: 434 Knots Altitude 37713 ft
09:05 Wind:269º@052 Knots Heading: 269º Ground Speed: 430 Knots Altitude 37746 ft
09:20 Wind:272º@056 Knots Heading: 268º Ground Speed: 427 Knots Altitude 37791 ft
09:35 Wind:276º@057 Knots Heading: 268º Ground Speed: 427 Knots Altitude 37834 ft
09:50 Wind:274º@066 Knots Heading: 227º Ground Speed: 442 Knots Altitude 37837 ft
09:58 TOD
09:58 Fuel Weight: 29725 Lb

10:05 Wind:279º@055 Knots Heading: 226º Ground Speed: 399 Knots Altitude 29806 ft
10:20 Wind:018º@014 Knots Heading: 220º Ground Speed: 303 Knots Altitude 9524 ft
10:24 Gear Down: 254 Knots
10:25 Gear Up: 258 Knots
10:26 Gear Down: 242 Knots
10:27 Flaps:1º at 208 Knots
10:27 Flaps:5º at 191 Knots
10:27 Flaps:15º at 182 Knots
10:27 Flaps:30º at 180 Knots
10:27 Flaps:35º at 173 Knots
10:28 Flaps:Full at 146 Knots
10:29 TouchDown:Rate -129 ft/min Speed: 137 Knots
10:30 VATSIM:UBBB 302100Z 18004KT 9999 FEW006 22/21 Q1007 R88/CLRD// NOSIG
10:30 Land
10:30 Wind:180º@004 Knots
10:30 Heading: 167º
10:30 Flight Duration: 03:10
10:30 Landing Weight: 504430 Lbs
10:30 POS N40º 28´ 21´´ E050º 02´ 10´´
10:30 Parking brakes on
10:30 Block to Block Duration: 03:17
10:30 Final Fuel: 25778 Lbls
10:30 Spent Fuel: 48787 Lbls
10:30 Flight Length: 1309 NM
10:30 TOD Land
Length: 177 NM

Text Link of Flight Log http://www.candanair.net/acars/logs/CXD07920200701070300.txt
   

[ Back ]